AirNav   Everest Fuels
 
 1044 users online  

GE99 Heaven's Landing Airport
Clayton, Georgia, USA

GOING TO CLAYTON?


FAA INFORMATION EFFECTIVE 26 JANUARY 2023

Location

FAA Identifier: GE99
Lat/Long: 34-54-51.0600N 083-27-33.9300W
34-54.851000N 083-27.565500W
34.9141833,-83.4594250
(estimated)
Elevation: 2735 ft. / 833.6 m (surveyed)
Variation: 05W (2005)
From city: 4 miles NW of CLAYTON, GA
Time zone: UTC -5 (UTC -4 during Daylight Saving Time)
Zip code: 30525

Airport Operations

Airport use: Private use. Permission required prior to landing
Activation date: 02/2004
Control tower: no
ARTCC: ATLANTA CENTER
FSS: MACON FLIGHT SERVICE STATION
NOTAMs facility: FDC (NOTAM-D service not available)
Attendance: 0900-1700
Wind indicator: yes
Segmented circle: no
Lights: ACTVT PAPI RWY 23; MIRL RWY 05/23 - CTAF.

Airport Communications

CTAF: 122.9
WX AWOS-3 at 1A5 (19 nm N): 118.225 (828-349-3156)
  • 122.9

Nearby radio navigation aids

VOR radial/distance  VOR name  Freq  Var
ODFr329/15.3FOOTHILLS VOR/DME113.4000E
HRSr094/22.5HARRIS VORTAC109.8000E

Airport Services

Fuel available: 100LL JET-A

Runway Information

Runway 5/23

Dimensions: 5062 x 50 ft. / 1543 x 15 m
Surface: concrete
Runway edge lights: medium intensity
Runway edge markings: RWY END MARKINGS NSTD SIZE.
RUNWAY 5  RUNWAY 23
Latitude: 34-54.530000N34-55.172000N
Longitude: 083-27.889000W083-27.242000W
Elevation: 2686.0 ft.2735.0 ft.
Traffic pattern: rightleft
Runway heading: 045 magnetic, 040 true225 magnetic, 220 true
Markings: NSTD, in good conditionNSTD, in good condition
Visual slope indicator: 2-light PAPI on left (4.00 degrees glide path)
Touchdown point: yes, no lightsyes, no lights

Airport Ownership and Management from official FAA records

Ownership: Privately-owned
Owner: HEAVEN'S LANDING DEVELOPMENT, LLC
805 HOOVER TRAIL
CLAYTON, GA 30525
Phone 706-212-0107
Manager: FRANK WEISSER
805 HOOVER TRAIL
CLAYTON, GA 30525
Phone 706-982-0435

Airport Operational Statistics

Aircraft based on the field: 12
Single engine airplanes: 8
Multi engine airplanes: 3
Jet airplanes: 1
    

Additional Remarks

MOUNTAINOUS TERRAIN ALL QUADRANTS.
FOR CD CTC ATLANTA ARTCC AT 770-210-7692.

Instrument Procedures

There are no published instrument procedures at GE99.

Some nearby airports with instrument procedures:

1A5 - Macon County Airport (19 nm N)
KTOC - Toccoa Airport-RG Letourneau Field (21 nm SE)
KAJR - Habersham County Airport (25 nm S)
KRHP - Western Carolina Regional Airport (26 nm NW)
KDZJ - Blairsville Airport (27 nm W)
 
Loc | Ops | Rwys | IFR | FBO | Links
Com | Nav | Svcs | Stats | Notes
Area around GE99 (Heaven's Landing Airport)
 
Road maps at: MapQuest Bing Google
 
Aerial photo
WARNING: Photo may not be current or correct
Aerial photo of GE99 (Heaven's Landing Airport)
Photo taken 04-Jan-2011
looking east.

Do you have a better or more recent aerial photo of Heaven's Landing Airport that you would like to share? If so, please send us your photo.

 
Sectional chart

 
Airport distance calculator
Flying to Heaven's Landing Airport? Find the distance to fly.

From to GE99

Sunrise and sunset
Times for 07-Feb-2023
 Local
(UTC-5)
 Zulu
(UTC)
Morning civil twilight07:0212:02
Sunrise07:2912:29
Sunset18:0723:07
Evening civil twilight18:3423:34

Current date and time
Zulu (UTC)  08-Feb-2023 01:20:49
Local (UTC-5)  07-Feb-2023 20:20:49
 
METAR
K1A5 
19nm N 
080055Z AUTO 00000KT 10SM CLR 12/00 A3033 RMK AO2 T01220000
KTOC 
21nm SE 
080055Z AUTO 23004KT 10SM CLR 11/03 A3030 RMK AO2 T01090025
KRHP 
25nm NW 
080055Z AUTO 00000KT 10SM CLR 08/00 A3029 RMK AO2 T00770000
KAJR 
25nm S 
080055Z AUTO 14003KT 10SM CLR 13/02 A3029 RMK AO2 T01290020
KDZJ 
27nm W 
080055Z AUTO 00000KT 10SM CLR 10/01 A3030 RMK AO2 T01000008
K24A 
27nm NE 
080055Z AUTO 18005KT 10SM CLR 11/M01 A3031 RMK AO2 T01071014
TAF
KAND 
44nm SE 
071720Z 0718/0818 21008KT P6SM SCT250 FM081100 24005KT P6SM SCT050 OVC100
NOTAMs
Click for the latest NOTAMs
NOTAMs are issued by the DoD/FAA and will open in a separate window not controlled by AirNav.

 

 
 

FBO, Fuel Providers, and Aircraft Ground Support

  
 Business Name 
 
 Contact 
 
 Services / Description 
 
Fuel Prices
 
Comments
  
Heaven's Landing Development 706-982-0435
[email]
Airport management, Aviation fuel, Hangars, Hangar leasing / sales, Aerial tours / aerial sightseeing, Rental cars, Courtesy transportation, ...

More info about Heaven's Landing Development
independent
no prices available
 
   write
Update Fuel Prices
 

Would you like to see your business listed on this page?

 If your business provides an interesting product or service to pilots, flight crews, aircraft, or users of the Heaven's Landing Airport, you should consider listing it here.  To start the listing process, click on the button below
 
Add a business
 

Other Pages about Heaven's Landing Airport

Update a link
 
Copyright © AirNav, LLC. All rights reserved. Privacy Policy  Contact